createdAt,value
2022-12-28T00:01:51.953Z,101335.06
2022-12-28T00:04:23.186Z,101331.22
2022-12-28T00:06:56.087Z,101343.34
2022-12-28T00:09:29.598Z,101335.97
2022-12-28T00:12:00.230Z,101334.81
2022-12-28T00:14:30.703Z,101334.69
2022-12-28T00:17:01.139Z,101341.25
2022-12-28T00:19:32.759Z,101355.06
2022-12-28T00:22:03.045Z,101347.06
2022-12-28T00:24:35.974Z,101348.44
2022-12-28T00:27:07.284Z,101356.28
2022-12-28T00:29:38.241Z,101356.75
2022-12-28T00:32:08.489Z,101349.22
2022-12-28T00:34:39.100Z,101352.19
2022-12-28T00:37:13.152Z,101353.41
2022-12-28T00:39:44.588Z,101342.97
2022-12-28T00:42:18.071Z,101347.41
2022-12-28T00:44:48.960Z,101347.09
2022-12-28T00:47:20.528Z,101344.41
2022-12-28T00:49:51.604Z,101350.41
2022-12-28T00:52:21.880Z,101346.41
2022-12-28T00:54:56.006Z,101341.66
2022-12-28T00:57:27.154Z,101337.56
2022-12-28T01:00:16.285Z,101337.88
2022-12-28T01:02:48.075Z,101330.19
2022-12-28T01:05:20.191Z,101333.63
2022-12-28T01:07:55.066Z,101336.84
2022-12-28T01:10:25.982Z,101347.59
2022-12-28T01:12:59.149Z,101351.91
2022-12-28T01:15:29.791Z,101353.09
2022-12-28T01:18:00.121Z,101351.22
2022-12-28T01:20:31.581Z,101352.75
2022-12-28T01:23:02.896Z,101349.28
2022-12-28T01:25:34.880Z,101359.09
2022-12-28T01:28:05.950Z,101348.31
2022-12-28T01:30:42.797Z,101346.38
2022-12-28T01:33:14.102Z,101349.75
2022-12-28T01:35:45.053Z,101347.75
2022-12-28T01:38:16.295Z,101342.88
2022-12-28T01:40:46.893Z,101345.91
2022-12-28T01:43:29.473Z,101338.03
2022-12-28T01:46:00.448Z,101332.28
2022-12-28T01:48:34.011Z,101327.94
2022-12-28T01:51:05.521Z,101326.84
2022-12-28T01:53:36.104Z,101318.59
2022-12-28T01:56:07.850Z,101318.31
2022-12-28T01:58:38.998Z,101311.78
2022-12-28T02:01:13.556Z,101308.25
2022-12-28T02:03:44.348Z,101314.34
2022-12-28T02:06:15.332Z,101313.69
2022-12-28T02:09:36.448Z,101319.41
2022-12-28T02:12:12.193Z,101305.13
2022-12-28T02:14:43.324Z,101307.34
2022-12-28T02:17:14.280Z,101294.72
2022-12-28T02:19:49.909Z,101293.22
2022-12-28T02:22:50.410Z,101293.56
2022-12-28T02:25:46.731Z,101283.25
2022-12-28T02:28:38.665Z,101279.56
2022-12-28T02:31:32.322Z,101276.72
2022-12-28T02:34:21.905Z,101258.88
2022-12-28T02:36:59.565Z,101258.19
2022-12-28T02:39:41.473Z,101257.69
2022-12-28T02:42:13.186Z,101254.81
2022-12-28T02:45:02.911Z,101253.47
2022-12-28T02:47:54.192Z,101243.03
2022-12-28T02:50:26.217Z,101238.31
2022-12-28T02:53:12.878Z,101230.41
2022-12-28T02:56:01.735Z,101226.19
2022-12-28T02:59:16.482Z,101227.69
2022-12-28T03:02:21.547Z,101225.84
2022-12-28T03:05:04.036Z,101222.16
2022-12-28T03:08:20.858Z,101210.00
2022-12-28T03:11:02.150Z,101217.75
2022-12-28T03:13:46.168Z,101214.19
2022-12-28T03:16:29.611Z,101212.16
2022-12-28T03:19:24.661Z,101204.88
2022-12-28T03:22:15.396Z,101199.81
2022-12-28T03:25:05.415Z,101197.78
2022-12-28T03:27:55.246Z,101202.66
2022-12-28T03:30:48.231Z,101199.13
2022-12-28T03:33:19.468Z,101184.06
2022-12-28T03:36:05.423Z,101182.94
2022-12-28T03:38:48.747Z,101185.81
2022-12-28T03:41:31.743Z,101192.19
2022-12-28T03:44:22.770Z,101189.31
2022-12-28T03:47:08.148Z,101181.56
2022-12-28T03:49:40.028Z,101192.19
2022-12-28T03:52:11.642Z,101184.09
2022-12-28T03:54:45.262Z,101177.81
2022-12-28T03:57:20.532Z,101170.75
2022-12-28T03:59:52.610Z,101171.00
2022-12-28T04:02:23.329Z,101168.00
2022-12-28T04:04:56.928Z,101162.25
2022-12-28T04:07:29.996Z,101163.06
2022-12-28T04:10:02.262Z,101154.34
2022-12-28T04:12:33.670Z,101155.38
2022-12-28T04:15:23.187Z,101158.72
2022-12-28T04:17:54.942Z,101165.75
2022-12-28T04:20:28.084Z,101165.41
2022-12-28T04:22:58.554Z,101167.00
2022-12-28T04:25:30.019Z,101163.94
2022-12-28T04:28:00.644Z,101163.94
2022-12-28T04:31:04.682Z,101165.13
2022-12-28T04:33:37.760Z,101154.91
2022-12-28T04:36:12.390Z,101155.72
2022-12-28T04:38:43.478Z,101169.41
2022-12-28T04:41:14.322Z,101154.91
2022-12-28T04:43:44.685Z,101157.09
2022-12-28T04:46:16.420Z,101149.84
2022-12-28T04:48:46.811Z,101153.94
2022-12-28T04:51:24.612Z,101158.38
2022-12-28T04:53:56.685Z,101163.47
2022-12-28T04:56:28.341Z,101157.41
2022-12-28T04:59:00.694Z,101140.19
2022-12-28T05:01:31.384Z,101144.28
2022-12-28T05:04:02.557Z,101126.22
2022-12-28T05:06:42.803Z,101131.13
2022-12-28T05:09:13.350Z,101122.28
2022-12-28T05:11:43.609Z,101123.44
2022-12-28T05:14:16.750Z,101109.91
2022-12-28T05:16:48.020Z,101118.56
2022-12-28T05:19:18.923Z,101098.34
2022-12-28T05:21:49.528Z,101100.25
2022-12-28T05:24:21.626Z,101092.41
2022-12-28T05:26:52.401Z,101091.31
2022-12-28T05:29:23.459Z,101084.69
2022-12-28T05:31:53.915Z,101078.91
2022-12-28T05:34:24.300Z,101075.19
2022-12-28T05:36:54.622Z,101070.53
2022-12-28T05:39:25.421Z,101061.41
2022-12-28T05:42:00.986Z,101059.56
2022-12-28T05:44:32.961Z,101057.88
2022-12-28T05:47:06.306Z,101061.97
2022-12-28T05:49:36.974Z,101051.22
2022-12-28T05:52:07.261Z,101053.25
2022-12-28T05:54:37.907Z,101049.19
2022-12-28T05:57:08.461Z,101042.94
2022-12-28T05:59:39.332Z,101042.56
2022-12-28T06:02:10.022Z,101038.69
2022-12-28T06:04:41.200Z,101056.44
2022-12-28T06:07:12.029Z,101039.56
2022-12-28T06:09:42.807Z,101045.16
2022-12-28T06:12:13.458Z,101033.34
2022-12-28T06:14:43.984Z,101044.63
2022-12-28T06:17:14.719Z,101043.06
2022-12-28T06:19:45.223Z,101057.13
2022-12-28T06:22:20.115Z,101036.34
2022-12-28T06:24:51.739Z,101039.47
2022-12-28T06:27:23.040Z,101031.91
2022-12-28T06:29:53.678Z,101039.34
2022-12-28T06:32:24.571Z,101037.00
2022-12-28T06:34:55.373Z,101030.03
2022-12-28T06:37:34.112Z,101026.75
2022-12-28T06:40:04.817Z,101029.06
2022-12-28T06:42:35.261Z,101030.97
2022-12-28T06:45:05.978Z,101029.38
2022-12-28T06:47:38.076Z,101033.38
2022-12-28T06:50:09.062Z,101030.56
2022-12-28T06:52:40.127Z,101035.06
2022-12-28T06:55:11.022Z,101032.81
2022-12-28T06:57:41.511Z,101026.84
2022-12-28T07:00:12.880Z,101027.41
2022-12-28T07:02:43.942Z,101022.75
2022-12-28T07:05:15.040Z,101029.06
2022-12-28T07:07:47.326Z,101038.19
2022-12-28T07:10:18.579Z,101032.81
2022-12-28T07:12:48.966Z,101044.06
2022-12-28T07:15:19.629Z,101042.97
2022-12-28T07:17:51.111Z,101048.53
2022-12-28T07:20:21.671Z,101055.53
2022-12-28T07:22:52.166Z,101052.75
2022-12-28T07:25:22.547Z,101053.88
2022-12-28T07:27:53.944Z,101055.25
2022-12-28T07:30:24.931Z,101061.34
2022-12-28T07:32:55.469Z,101058.00
2022-12-28T07:35:26.105Z,101061.06
2022-12-28T07:37:56.512Z,101056.03
2022-12-28T07:40:27.343Z,101062.16
2022-12-28T07:42:57.652Z,101060.84
2022-12-28T07:45:29.039Z,101069.97
2022-12-28T07:47:59.852Z,101065.88
2022-12-28T07:50:37.492Z,101076.69
2022-12-28T07:53:08.649Z,101073.97
2022-12-28T07:55:41.390Z,101070.91
2022-12-28T07:58:11.841Z,101075.59
2022-12-28T08:00:42.307Z,101075.59
2022-12-28T08:03:12.931Z,101078.66
2022-12-28T08:05:44.022Z,101077.03
2022-12-28T08:08:14.761Z,101089.97
2022-12-28T08:10:45.355Z,101085.44
2022-12-28T08:13:21.780Z,101097.25
2022-12-28T08:15:58.157Z,101097.41
2022-12-28T08:18:29.125Z,101093.31
2022-12-28T08:21:05.070Z,101105.84
2022-12-28T08:23:36.048Z,101119.31
2022-12-28T08:26:08.675Z,101104.22
2022-12-28T08:28:40.838Z,101116.88
2022-12-28T08:31:32.960Z,101116.56
2022-12-28T08:34:05.063Z,101123.75
2022-12-28T08:36:36.274Z,101123.47
2022-12-28T08:39:07.833Z,101125.41
2022-12-28T08:41:40.535Z,101126.63
2022-12-28T08:44:10.840Z,101134.72
2022-12-28T08:46:42.324Z,101135.59
2022-12-28T08:49:13.743Z,101142.53
2022-12-28T08:51:55.449Z,101153.66
2022-12-28T08:54:26.084Z,101141.53
2022-12-28T08:56:56.595Z,101156.38
2022-12-28T08:59:29.130Z,101141.88
2022-12-28T09:02:03.484Z,101154.41
2022-12-28T09:04:34.630Z,101161.47
2022-12-28T09:07:07.310Z,101163.84
2022-12-28T09:09:37.841Z,101173.28
2022-12-28T09:12:08.993Z,101169.94
2022-12-28T09:14:41.245Z,101178.69
2022-12-28T09:17:11.747Z,101182.41
2022-12-28T09:19:42.819Z,101173.44
2022-12-28T09:22:13.145Z,101177.00
2022-12-28T09:24:44.863Z,101179.84
2022-12-28T09:27:15.703Z,101167.41
2022-12-28T09:29:46.348Z,101175.66
2022-12-28T09:32:17.096Z,101177.69
2022-12-28T09:34:47.608Z,101177.16
2022-12-28T09:37:18.033Z,101181.63
2022-12-28T09:39:49.529Z,101186.69
2022-12-28T09:42:25.198Z,101189.72
2022-12-28T09:45:04.765Z,101180.63
2022-12-28T09:47:45.416Z,101183.16
2022-12-28T09:50:19.455Z,101189.72
2022-12-28T09:53:21.615Z,101193.94
2022-12-28T09:56:25.977Z,101202.19
2022-12-28T09:58:57.793Z,101189.94
2022-12-28T10:01:29.148Z,101186.75
2022-12-28T10:04:06.258Z,101192.81
2022-12-28T10:06:40.743Z,101193.31
2022-12-28T10:09:17.947Z,101197.84
2022-12-28T10:11:48.702Z,101196.19
2022-12-28T10:14:29.192Z,101204.28
2022-12-28T10:17:01.053Z,101198.56
2022-12-28T10:19:31.554Z,101208.97
2022-12-28T10:22:18.114Z,101205.94
2022-12-28T10:24:49.715Z,101204.44
2022-12-28T10:27:26.024Z,101216.75
2022-12-28T10:30:00.144Z,101219.59
2022-12-28T10:33:03.044Z,101214.88
2022-12-28T10:35:43.978Z,101215.75
2022-12-28T10:38:34.181Z,101219.63
2022-12-28T10:41:09.049Z,101227.03
2022-12-28T10:43:42.743Z,101233.28
2022-12-28T10:46:24.579Z,101227.56
2022-12-28T10:48:57.643Z,101226.88
2022-12-28T10:51:29.269Z,101231.41
2022-12-28T10:54:01.214Z,101229.56
2022-12-28T10:56:34.067Z,101234.78
2022-12-28T10:59:13.823Z,101234.63
2022-12-28T11:01:45.109Z,101225.69
2022-12-28T11:04:22.439Z,101237.31
2022-12-28T11:06:53.539Z,101233.28
2022-12-28T11:09:28.267Z,101237.66
2022-12-28T11:12:19.480Z,101233.09
2022-12-28T11:14:50.551Z,101228.91
2022-12-28T11:17:25.882Z,101245.06
2022-12-28T11:20:07.337Z,101243.38
2022-12-28T11:22:39.089Z,101253.47
2022-12-28T11:25:19.915Z,101246.22
2022-12-28T11:27:51.147Z,101240.16
2022-12-28T11:30:22.049Z,101248.09
2022-12-28T11:33:01.260Z,101246.41
2022-12-28T11:35:38.246Z,101238.66
2022-12-28T11:38:12.312Z,101235.78
2022-12-28T11:40:45.409Z,101231.25
2022-12-28T11:43:40.732Z,101235.44
2022-12-28T11:46:23.275Z,101241.84
2022-12-28T11:49:01.930Z,101240.34
2022-12-28T11:51:39.041Z,101236.97
2022-12-28T11:54:38.418Z,101237.13
2022-12-28T11:57:12.023Z,101250.78
2022-12-28T11:59:42.426Z,101243.72
2022-12-28T12:02:22.721Z,101249.94
2022-12-28T12:04:53.239Z,101260.22
2022-12-28T12:07:32.069Z,101262.53
2022-12-28T12:10:37.124Z,101264.59
2022-12-28T12:13:29.439Z,101258.19
2022-12-28T12:16:09.775Z,101261.91
2022-12-28T12:18:53.073Z,101265.59
2022-12-28T12:21:45.019Z,101271.31
2022-12-28T12:24:29.594Z,101273.16
2022-12-28T12:27:11.873Z,101279.41
2022-12-28T12:30:07.391Z,101274.19
2022-12-28T12:32:51.563Z,101276.72
2022-12-28T12:36:01.886Z,101284.63
2022-12-28T12:38:50.518Z,101284.47
2022-12-28T12:41:50.199Z,101286.16
2022-12-28T12:44:41.792Z,101290.53
2022-12-28T12:47:17.683Z,101288.16
2022-12-28T12:50:25.973Z,101292.88
2022-12-28T12:53:08.067Z,101292.34
2022-12-28T12:56:10.234Z,101298.59
2022-12-28T12:58:53.948Z,101291.53
2022-12-28T13:01:28.409Z,101285.63
2022-12-28T13:04:10.013Z,101294.56
2022-12-28T13:06:40.600Z,101290.50
2022-12-28T13:09:18.882Z,101288.81
2022-12-28T13:11:49.922Z,101296.22
2022-12-28T13:14:22.559Z,101295.91
2022-12-28T13:17:00.803Z,101296.22
2022-12-28T13:19:32.470Z,101292.53
2022-12-28T13:22:04.346Z,101290.84
2022-12-28T13:24:41.581Z,101291.16
2022-12-28T13:27:20.341Z,101287.78
2022-12-28T13:29:55.068Z,101287.47
2022-12-28T13:32:38.635Z,101278.88
2022-12-28T13:35:24.019Z,101284.44
2022-12-28T13:38:05.544Z,101287.47
2022-12-28T13:40:36.765Z,101290.84
2022-12-28T13:43:47.587Z,101290.19
2022-12-28T13:46:20.409Z,101283.44
2022-12-28T13:48:53.552Z,101280.91
2022-12-28T13:51:24.212Z,101290.84
2022-12-28T13:53:59.499Z,101292.53
2022-12-28T13:56:34.223Z,101281.75
2022-12-28T13:59:08.901Z,101280.06
2022-12-28T14:01:45.327Z,101274.69
2022-12-28T14:07:17.305Z,101278.38
2022-12-28T14:09:48.321Z,101276.72
2022-12-28T14:12:19.477Z,101278.69
2022-12-28T14:14:52.723Z,101270.63
2022-12-28T14:17:24.587Z,101269.59
2022-12-28T14:19:58.646Z,101271.63
2022-12-28T14:22:35.722Z,101267.91
2022-12-28T14:25:28.289Z,101260.84
2022-12-28T14:27:59.884Z,101265.06
2022-12-28T14:30:33.500Z,101254.47
2022-12-28T14:33:19.454Z,101262.53
2022-12-28T14:35:59.279Z,101253.44
2022-12-28T14:38:48.314Z,101256.84
2022-12-28T14:41:23.435Z,101249.25
2022-12-28T14:44:00.675Z,101243.00
2022-12-28T14:46:40.088Z,101248.38
2022-12-28T14:49:30.251Z,101239.97
2022-12-28T14:52:10.407Z,101233.91
2022-12-28T14:54:53.043Z,101223.16
2022-12-28T14:57:35.927Z,101230.41
2022-12-28T15:00:23.108Z,101230.88
2022-12-28T15:02:54.408Z,101223.47
2022-12-28T15:05:40.627Z,101218.09
2022-12-28T15:08:23.926Z,101221.81
2022-12-28T15:10:58.937Z,101223.81
2022-12-28T15:13:29.857Z,101212.22
2022-12-28T15:16:03.337Z,101213.03
2022-12-28T15:18:35.024Z,101216.41
2022-12-28T15:21:07.264Z,101220.97
2022-12-28T15:23:38.829Z,101211.03
2022-12-28T15:26:13.983Z,101216.75
2022-12-28T15:28:48.351Z,101207.66
2022-12-28T15:31:23.032Z,101203.28
2022-12-28T15:33:53.931Z,101204.47
2022-12-28T15:36:27.640Z,101202.47
2022-12-28T15:39:05.217Z,101211.69
2022-12-28T15:41:48.284Z,101210.00
2022-12-28T15:44:21.311Z,101204.81
2022-12-28T15:46:52.054Z,101206.66
2022-12-28T15:49:22.515Z,101213.03
2022-12-28T15:51:53.056Z,101211.34
2022-12-28T15:54:24.193Z,101209.66
2022-12-28T15:56:58.723Z,101206.16
2022-12-28T15:59:29.331Z,101215.41
2022-12-28T16:02:00.808Z,101214.38
2022-12-28T16:04:32.565Z,101209.34
2022-12-28T16:07:03.280Z,101206.81
2022-12-28T16:09:33.798Z,101202.91
2022-12-28T16:12:04.384Z,101207.22
2022-12-28T16:14:34.747Z,101207.88
2022-12-28T16:17:06.278Z,101203.84
2022-12-28T16:19:37.084Z,101203.16
2022-12-28T16:22:07.721Z,101195.78
2022-12-28T16:24:38.890Z,101198.13
2022-12-28T16:27:10.502Z,101192.22
2022-12-28T16:29:41.389Z,101190.03
2022-12-28T16:32:11.862Z,101182.13
2022-12-28T16:34:42.315Z,101175.72
2022-12-28T16:37:13.203Z,101179.94
2022-12-28T16:39:43.663Z,101175.22
2022-12-28T16:42:14.130Z,101178.38
2022-12-28T16:44:44.725Z,101169.84
2022-12-28T16:47:15.079Z,101177.91
2022-12-28T16:49:48.972Z,101180.59
2022-12-28T16:52:19.531Z,101181.41
2022-12-28T16:54:49.785Z,101179.72
2022-12-28T16:57:21.000Z,101182.59
2022-12-28T16:59:51.534Z,101179.41
2022-12-28T17:02:31.158Z,101172.16
2022-12-28T17:05:09.646Z,101177.88
2022-12-28T17:07:41.074Z,101170.78
2022-12-28T17:10:11.883Z,101161.72
2022-12-28T17:12:46.746Z,101166.44
2022-12-28T17:15:17.350Z,101166.13
2022-12-28T17:17:48.574Z,101160.88
2022-12-28T17:20:19.341Z,101155.69
2022-12-28T17:22:49.920Z,101155.31
2022-12-28T17:25:23.678Z,101154.47
2022-12-28T17:27:55.117Z,101162.38
2022-12-28T17:30:25.606Z,101159.84
2022-12-28T17:32:56.398Z,101156.66
2022-12-28T17:35:28.052Z,101146.25
2022-12-28T17:37:58.595Z,101142.56
2022-12-28T17:40:29.742Z,101137.50
2022-12-28T17:43:00.314Z,101137.84
2022-12-28T17:45:30.679Z,101137.19
2022-12-28T17:48:01.355Z,101139.69
2022-12-28T17:50:31.740Z,101130.94
2022-12-28T17:53:02.332Z,101132.13
2022-12-28T17:55:32.891Z,101121.06
2022-12-28T17:58:03.531Z,101116.50
2022-12-28T18:00:34.426Z,101121.19
2022-12-28T18:03:15.841Z,101113.47
2022-12-28T18:05:50.527Z,101106.72
2022-12-28T18:08:21.806Z,101107.59
2022-12-28T18:10:52.484Z,101107.59
2022-12-28T18:13:23.261Z,101098.84
2022-12-28T18:15:56.405Z,101107.91
2022-12-28T18:18:27.016Z,101105.91
2022-12-28T18:21:03.819Z,101095.97
2022-12-28T18:23:35.294Z,101092.91
2022-12-28T18:26:15.133Z,101091.06
2022-12-28T18:28:47.363Z,101089.03
2022-12-28T18:31:17.906Z,101083.88
2022-12-28T18:33:48.380Z,101072.59
2022-12-28T18:36:18.814Z,101079.78
2022-12-28T18:38:49.860Z,101083.47
2022-12-28T18:41:26.593Z,101083.34
2022-12-28T18:44:02.793Z,101084.00
2022-12-28T18:46:33.620Z,101082.66
2022-12-28T18:49:04.588Z,101085.34
2022-12-28T18:51:34.862Z,101077.25
2022-12-28T18:54:06.545Z,101073.22
2022-12-28T18:56:39.990Z,101075.56
2022-12-28T18:59:13.346Z,101081.78
2022-12-28T19:04:34.764Z,101065.31
2022-12-28T19:07:18.890Z,101069.88
2022-12-28T19:10:12.679Z,101072.22
2022-12-28T19:12:45.140Z,101071.88
2022-12-28T19:15:15.715Z,101064.50
2022-12-28T19:17:46.342Z,101073.56
2022-12-28T19:20:19.567Z,101074.03
2022-12-28T19:22:49.833Z,101076.91
2022-12-28T19:25:20.786Z,101083.91
2022-12-28T19:27:51.761Z,101082.56
2022-12-28T19:30:23.054Z,101080.06
2022-12-28T19:32:55.517Z,101073.50
2022-12-28T19:35:26.166Z,101074.50
2022-12-28T19:37:59.876Z,101073.00
2022-12-28T19:40:30.463Z,101072.13
2022-12-28T19:43:01.618Z,101074.13
2022-12-28T19:45:31.888Z,101072.78
2022-12-28T19:48:03.089Z,101070.66
2022-12-28T19:50:33.553Z,101074.13
2022-12-28T19:53:04.193Z,101081.75
2022-12-28T19:55:35.805Z,101077.19
2022-12-28T19:58:06.420Z,101082.88
2022-12-28T20:00:36.931Z,101081.75
2022-12-28T20:03:09.072Z,101081.75
2022-12-28T20:05:39.648Z,101077.19
2022-12-28T20:08:10.390Z,101072.63
2022-12-28T20:10:41.329Z,101078.00
2022-12-28T20:13:12.458Z,101069.63
2022-12-28T20:15:46.584Z,101068.78
2022-12-28T20:18:16.946Z,101064.72
2022-12-28T20:21:18.067Z,101074.78
2022-12-28T20:23:38.759Z,101066.91
2022-12-28T20:26:10.650Z,101071.97
2022-12-28T20:28:41.384Z,101074.59
2022-12-28T20:31:15.434Z,101073.56
2022-12-28T20:33:46.235Z,101079.44
2022-12-28T20:36:22.251Z,101076.06
2022-12-28T20:38:53.461Z,101086.81
2022-12-28T20:41:47.345Z,101080.63
2022-12-28T20:44:23.119Z,101087.81
2022-12-28T20:46:59.032Z,101093.19
2022-12-28T20:49:30.639Z,101081.13
2022-12-28T20:52:01.186Z,101081.97
2022-12-28T20:54:31.811Z,101081.66
2022-12-28T20:57:03.853Z,101081.97
2022-12-28T20:59:34.875Z,101082.81
2022-12-28T21:02:05.629Z,101082.28
2022-12-28T21:04:36.224Z,101091.09
2022-12-28T21:07:06.478Z,101087.44
2022-12-28T21:09:39.724Z,101092.19
2022-12-28T21:12:10.561Z,101095.34
2022-12-28T21:14:44.270Z,101094.50
2022-12-28T21:17:14.856Z,101101.56
2022-12-28T21:19:45.337Z,101100.56
2022-12-28T21:22:15.893Z,101105.63
2022-12-28T21:24:46.337Z,101110.91
2022-12-28T21:27:16.640Z,101114.91
2022-12-28T21:29:47.441Z,101117.44
2022-12-28T21:32:20.427Z,101114.97
2022-12-28T21:34:51.053Z,101118.53
2022-12-28T21:37:36.827Z,101121.22
2022-12-28T21:40:12.069Z,101116.00
2022-12-28T21:42:43.388Z,101123.31
2022-12-28T21:45:13.931Z,101122.50
2022-12-28T21:47:44.639Z,101124.31
2022-12-28T21:50:18.394Z,101126.00
2022-12-28T21:52:49.103Z,101130.09
2022-12-28T21:55:38.127Z,101134.06
2022-12-28T21:58:08.827Z,101134.06
2022-12-28T22:00:57.831Z,101134.69
2022-12-28T22:03:46.588Z,101133.31
2022-12-28T22:06:17.372Z,101134.00
2022-12-28T22:09:06.099Z,101136.69
2022-12-28T22:11:54.893Z,101136.06
2022-12-28T22:14:25.226Z,101140.06
2022-12-28T22:16:55.850Z,101141.25
2022-12-28T22:19:27.365Z,101148.75
2022-12-28T22:21:58.181Z,101151.13
2022-12-28T22:24:30.812Z,101160.41
2022-12-28T22:27:01.255Z,101165.56
2022-12-28T22:29:32.957Z,101188.03
2022-12-28T22:32:04.999Z,101192.78
2022-12-28T22:34:35.875Z,101202.84
2022-12-28T22:37:06.226Z,101194.72
2022-12-28T22:39:37.075Z,101204.31
2022-12-28T22:42:17.163Z,101200.16
2022-12-28T22:44:48.503Z,101204.44
2022-12-28T22:47:19.512Z,101216.97
2022-12-28T22:49:51.651Z,101219.66
2022-12-28T22:52:23.421Z,101218.50
2022-12-28T22:54:53.738Z,101216.50
2022-12-28T22:57:24.861Z,101220.19
2022-12-28T22:59:55.485Z,101223.56
2022-12-28T23:02:26.154Z,101232.59
2022-12-28T23:04:57.116Z,101242.22
2022-12-28T23:07:28.282Z,101247.41
2022-12-28T23:09:59.029Z,101240.34
2022-12-28T23:12:29.488Z,101241.34
2022-12-28T23:15:20.185Z,101250.72
2022-12-28T23:18:13.037Z,101253.09
2022-12-28T23:21:01.704Z,101255.41
2022-12-28T23:23:50.460Z,101251.56
2022-12-28T23:26:39.410Z,101248.50
2022-12-28T23:29:12.684Z,101249.06
2022-12-28T23:31:43.356Z,101243.13
2022-12-28T23:34:13.938Z,101251.34
2022-12-28T23:36:47.377Z,101254.56
2022-12-28T23:39:17.802Z,101252.19
2022-12-28T23:41:53.895Z,101251.78
2022-12-28T23:44:26.406Z,101245.41
2022-12-28T23:46:59.588Z,101257.09
2022-12-28T23:49:32.855Z,101264.38
2022-12-28T23:52:03.654Z,101256.63
2022-12-28T23:54:34.081Z,101262.38
2022-12-28T23:57:05.090Z,101269.44
2022-12-28T23:59:45.364Z,101269.69
